Time;durP1;ratioP1;P1;durP2;ratioP2;P2;SDS_P1;SDS_P2;PMS_P1;PMS_P2;Temp;Humidity;BMP_temperature;BMP_pressure;BME280_temperature;BME280_humidity;BME280_pressure;Samples;Min_cycle;Max_cycle;Signal;HPM_P1;HPM_P2
2021/04/13 00:00:04;;;;;;;0.10;0.10;;;4.70;93.70;;;;;;5039341;28;20045;-71
2021/04/13 00:02:40;;;;;;;0.10;0.10;;;4.70;92.80;;;;;;5039303;28;20033;-70
2021/04/13 00:05:10;;;;;;;0.10;0.10;;;4.80;93.30;;;;;;5039104;28;20033;-71
2021/04/13 00:07:39;;;;;;;0.10;0.10;;;4.70;92.90;;;;;;5039242;28;20045;-71
2021/04/13 00:10:17;;;;;;;0.10;0.10;;;4.80;93.50;;;;;;5039175;28;20014;-71
2021/04/13 00:12:45;;;;;;;0.10;0.10;;;4.80;91.90;;;;;;5039072;28;20080;-71
2021/04/13 00:15:14;;;;;;;0.00;0.00;;;4.90;92.90;;;;;;5039327;28;20036;-71
2021/04/13 00:17:42;;;;;;;0.10;0.10;;;4.80;92.50;;;;;;5038999;28;20529;-71
2021/04/13 00:20:51;;;;;;;0.08;0.08;;;4.70;93.60;;;;;;5038950;28;20071;-71
2021/04/13 00:23:18;;;;;;;0.00;0.00;;;4.80;93.20;;;;;;5031555;28;20036;-71
2021/04/13 00:26:00;;;;;;;0.10;0.10;;;4.60;91.80;;;;;;5038624;28;20429;-71
2021/04/13 00:28:33;;;;;;;0.10;0.10;;;4.50;93.60;;;;;;5038830;28;20033;-70
2021/04/13 00:31:06;;;;;;;0.10;0.10;;;4.40;93.40;;;;;;5038785;28;20039;-70
2021/04/13 00:33:35;;;;;;;0.10;0.10;;;4.40;92.80;;;;;;5038696;28;20108;-71
2021/04/13 00:36:11;;;;;;;0.08;0.08;;;4.40;92.80;;;;;;5038233;28;20064;-70
2021/04/13 00:38:49;;;;;;;0.00;0.00;;;4.40;93.90;;;;;;5038976;28;20033;-70
2021/04/13 00:41:49;;;;;;;0.20;0.10;;;4.50;94.10;;;;;;5038660;28;20033;-71
2021/04/13 00:44:16;;;;;;;0.10;0.10;;;4.60;93.70;;;;;;5037855;28;20044;-71
2021/04/13 00:47:03;;;;;;;0.10;0.10;;;4.60;93.50;;;;;;5038470;28;20033;-71
2021/04/13 00:49:32;;;;;;;0.10;0.10;;;4.60;96.60;;;;;;5038727;28;20206;-71
2021/04/13 00:52:15;;;;;;;0.00;0.00;;;4.80;95.90;;;;;;5038754;28;20021;-72
2021/04/13 00:54:49;;;;;;;0.10;0.10;;;5.00;94.40;;;;;;5038651;28;20083;-72
2021/04/13 00:57:22;;;;;;;1.77;0.10;;;5.00;94.20;;;;;;5038598;28;20026;-71
2021/04/13 00:59:49;;;;;;;0.43;0.10;;;4.80;97.00;;;;;;5038267;28;20034;-72
2021/04/13 01:02:21;;;;;;;0.00;0.00;;;4.80;96.50;;;;;;5038537;28;20048;-71
2021/04/13 01:05:10;;;;;;;0.10;0.10;;;4.70;93.40;;;;;;5038337;28;20076;-71
2021/04/13 01:07:54;;;;;;;0.10;0.10;;;4.60;94.50;;;;;;5038116;28;20026;-71
2021/04/13 01:10:31;;;;;;;0.40;0.10;;;4.60;97.10;;;;;;5038421;28;20108;-71
2021/04/13 01:13:09;;;;;;;0.00;0.00;;;4.60;95.70;;;;;;5038029;28;20070;-71
2021/04/13 01:15:37;;;;;;;0.10;0.10;;;4.70;95.60;;;;;;5037951;28;20097;-71
2021/04/13 01:18:19;;;;;;;0.10;0.10;;;4.80;95.90;;;;;;5038157;28;20025;-71
2021/04/13 01:20:57;;;;;;;0.00;0.00;;;4.80;94.90;;;;;;5037881;28;20036;-71
2021/04/13 01:23:31;;;;;;;0.10;0.10;;;4.50;94.30;;;;;;5037752;28;20051;-70
2021/04/13 01:26:00;;;;;;;0.10;0.10;;;4.30;95.60;;;;;;5037596;28;20053;-70
2021/04/13 01:28:30;;;;;;;0.10;0.10;;;4.20;97.50;;;;;;5037679;28;20056;-70
2021/04/13 01:31:14;;;;;;;0.10;0.10;;;4.20;95.80;;;;;;5037647;28;20436;-71
2021/04/13 01:33:49;;;;;;;0.10;0.10;;;4.20;97.90;;;;;;5037550;28;20026;-71
2021/04/13 01:36:29;;;;;;;0.10;0.10;;;4.20;97.90;;;;;;5037597;28;20037;-71
2021/04/13 01:39:16;;;;;;;0.10;0.10;;;4.40;96.20;;;;;;5037797;28;20354;-71
2021/04/13 01:42:09;;;;;;;1.40;0.10;;;4.30;94.00;;;;;;5037478;28;20025;-71
2021/04/13 01:44:51;;;;;;;0.10;0.10;;;4.20;94.00;;;;;;5037067;28;20388;-71
2021/04/13 01:47:20;;;;;;;0.10;0.10;;;4.10;94.10;;;;;;5036592;28;20017;-71
2021/04/13 01:49:48;;;;;;;0.20;0.20;;;4.10;95.70;;;;;;5037617;28;20029;-71
2021/04/13 01:52:28;;;;;;;0.10;0.10;;;4.10;93.40;;;;;;5037526;28;20026;-71
2021/04/13 01:54:56;;;;;;;0.10;0.10;;;4.20;95.70;;;;;;5037587;28;20033;-71
2021/04/13 01:57:50;;;;;;;0.10;0.10;;;4.10;96.50;;;;;;5037463;28;20116;-72
2021/04/13 02:00:30;;;;;;;0.10;0.10;;;4.10;97.00;;;;;;5037116;28;20124;-71
2021/04/13 02:03:08;;;;;;;0.10;0.10;;;4.20;97.80;;;;;;5037443;28;20100;-71
2021/04/13 02:05:38;;;;;;;0.15;0.10;;;4.20;97.30;;;;;;5037288;28;20041;-72
2021/04/13 02:08:22;;;;;;;0.10;0.10;;;4.30;96.40;;;;;;5037039;28;20017;-72
2021/04/13 02:11:01;;;;;;;0.10;0.10;;;4.30;95.50;;;;;;5037327;28;20035;-72
2021/04/13 02:13:49;;;;;;;0.10;0.10;;;4.30;96.10;;;;;;5037208;28;20317;-72
2021/04/13 02:16:21;;;;;;;0.10;0.10;;;4.30;96.20;;;;;;5036183;28;20092;-72
2021/04/13 02:18:50;;;;;;;0.10;0.10;;;4.30;97.40;;;;;;5037187;28;20029;-71
2021/04/13 02:21:21;;;;;;;0.10;0.10;;;4.20;94.60;;;;;;5037101;28;20038;-72
2021/04/13 02:23:58;;;;;;;0.63;0.10;;;4.20;93.90;;;;;;5037013;28;20025;-71
2021/04/13 02:26:24;;;;;;;0.10;0.10;;;4.20;94.10;;;;;;5036615;28;20345;-71
2021/04/13 02:28:51;;;;;;;0.10;0.10;;;4.10;94.30;;;;;;5036732;28;20028;-71
2021/04/13 02:31:47;;;;;;;0.05;0.05;;;4.10;93.40;;;;;;5037041;28;20025;-71
2021/04/13 02:34:21;;;;;;;0.10;0.10;;;4.10;93.60;;;;;;5036901;28;20025;-71
2021/04/13 02:36:49;;;;;;;0.20;0.20;;;4.00;94.40;;;;;;5036973;28;20034;-71
2021/04/13 02:39:18;;;;;;;0.10;0.10;;;3.90;94.70;;;;;;5036603;28;20029;-71
2021/04/13 02:41:55;;;;;;;0.10;0.10;;;3.90;92.40;;;;;;5036947;28;20322;-71
2021/04/13 02:44:23;;;;;;;0.20;0.20;;;3.90;93.30;;;;;;5036516;28;20029;-71
2021/04/13 02:46:58;;;;;;;0.10;0.10;;;3.80;93.00;;;;;;5036802;28;20040;-71
2021/04/13 02:49:25;;;;;;;0.10;0.10;;;3.80;93.50;;;;;;5036801;28;20018;-71
2021/04/13 02:52:00;;;;;;;0.10;0.10;;;3.80;93.70;;;;;;5036525;28;20113;-71
2021/04/13 02:54:37;;;;;;;0.10;0.10;;;3.80;94.10;;;;;;5036701;28;20033;-70
2021/04/13 02:57:09;;;;;;;0.30;0.10;;;3.80;93.50;;;;;;5036662;28;20069;-71
2021/04/13 02:59:37;;;;;;;0.10;0.10;;;3.80;93.40;;;;;;5040524;28;20477;-71
2021/04/13 03:02:06;;;;;;;0.10;0.10;;;3.80;94.00;;;;;;5040463;28;20429;-71
2021/04/13 03:04:40;;;;;;;0.10;0.10;;;3.90;92.30;;;;;;5040611;28;20088;-71
2021/04/13 03:07:07;;;;;;;0.10;0.10;;;3.70;94.90;;;;;;5040415;28;20505;-71
2021/04/13 03:09:36;;;;;;;0.10;0.10;;;3.80;93.80;;;;;;5040344;28;20048;-71
2021/04/13 03:12:06;;;;;;;0.10;0.10;;;3.80;93.20;;;;;;5040603;28;20026;-71
2021/04/13 03:14:48;;;;;;;0.10;0.10;;;3.90;93.50;;;;;;5040075;28;20046;-71
2021/04/13 03:17:20;;;;;;;0.20;0.10;;;3.90;92.50;;;;;;5040513;28;20121;-71
2021/04/13 03:19:48;;;;;;;0.10;0.10;;;3.90;93.40;;;;;;5040386;28;20028;-71
2021/04/13 03:22:16;;;;;;;0.10;0.10;;;4.00;92.10;;;;;;5040357;28;20317;-71
2021/04/13 03:24:44;;;;;;;0.10;0.10;;;4.00;91.40;;;;;;5039966;28;20445;-72
2021/04/13 03:27:13;;;;;;;0.10;0.10;;;4.00;92.80;;;;;;5040005;28;20520;-72
2021/04/13 03:30:01;;;;;;;0.10;0.10;;;4.00;92.50;;;;;;5040267;28;20032;-72
2021/04/13 03:32:31;;;;;;;0.10;0.10;;;4.00;91.80;;;;;;5039906;28;20029;-72
2021/04/13 03:34:57;;;;;;;0.95;0.20;;;4.00;91.90;;;;;;5040126;28;20025;-71
2021/04/13 03:37:23;;;;;;;0.13;0.13;;;4.00;91.60;;;;;;5039802;28;20041;-71
2021/04/13 03:39:50;;;;;;;0.10;0.10;;;4.00;90.00;;;;;;5040086;28;20021;-72
2021/04/13 03:42:27;;;;;;;0.10;0.10;;;4.10;89.20;;;;;;5039996;28;20034;-71
2021/04/13 03:44:55;;;;;;;0.10;0.10;;;4.10;89.90;;;;;;5039833;28;20155;-72
2021/04/13 03:47:25;;;;;;;0.10;0.10;;;4.20;89.20;;;;;;5039901;28;20022;-72
2021/04/13 03:49:52;;;;;;;1.65;0.10;;;4.20;87.80;;;;;;5039599;28;20436;-72
2021/04/13 03:52:35;;;;;;;0.10;0.10;;;4.30;88.40;;;;;;5039823;28;20036;-71
2021/04/13 03:55:16;;;;;;;0.10;0.10;;;4.30;87.50;;;;;;5039832;28;20029;-72
2021/04/13 03:57:41;;;;;;;0.10;0.10;;;4.40;87.50;;;;;;5039319;28;20037;-72
2021/04/13 04:00:13;;;;;;;0.10;0.10;;;4.40;87.10;;;;;;5039452;28;20295;-72
2021/04/13 04:02:39;;;;;;;0.10;0.10;;;4.40;86.30;;;;;;5039322;28;20034;-71
2021/04/13 04:05:14;;;;;;;0.30;0.10;;;4.50;86.10;;;;;;5039453;28;20037;-72
2021/04/13 04:08:01;;;;;;;0.10;0.10;;;4.50;86.30;;;;;;5039548;28;20021;-72
2021/04/13 04:10:47;;;;;;;0.10;0.10;;;4.50;85.30;;;;;;5038372;28;20022;-72
2021/04/13 04:13:15;;;;;;;0.20;0.17;;;4.60;84.20;;;;;;5038999;28;20033;-72
2021/04/13 04:15:48;;;;;;;0.10;0.10;;;4.50;85.30;;;;;;5039090;28;20032;-73
2021/04/13 04:18:28;;;;;;;0.10;0.10;;;4.60;83.10;;;;;;5039026;28;20037;-72
2021/04/13 04:20:55;;;;;;;0.10;0.10;;;4.70;82.40;;;;;;5038979;28;20022;-72
2021/04/13 04:23:29;;;;;;;0.10;0.10;;;4.80;81.10;;;;;;5038936;28;20033;-72
2021/04/13 04:26:00;;;;;;;0.10;0.10;;;4.80;81.20;;;;;;5038728;28;20077;-72
2021/04/13 04:28:31;;;;;;;0.30;0.10;;;4.90;81.40;;;;;;5039184;28;20373;-72
2021/04/13 04:31:34;;;;;;;0.10;0.10;;;4.90;80.00;;;;;;5038882;28;20318;-72
2021/04/13 04:34:00;;;;;;;0.10;0.10;;;5.10;78.80;;;;;;5039020;28;20357;-72
2021/04/13 04:36:32;;;;;;;0.32;0.10;;;5.00;79.00;;;;;;5038676;28;20406;-72
2021/04/13 04:39:28;;;;;;;0.30;0.13;;;5.10;78.20;;;;;;5039076;28;20033;-73
2021/04/13 04:41:59;;;;;;;0.10;0.10;;;5.20;77.40;;;;;;5038893;28;20330;-72
2021/04/13 04:44:27;;;;;;;0.13;0.10;;;5.30;77.80;;;;;;5038826;28;20068;-73
2021/04/13 04:46:58;;;;;;;0.20;0.10;;;5.30;77.20;;;;;;5038737;28;20433;-72
2021/04/13 04:49:34;;;;;;;0.10;0.10;;;5.40;76.40;;;;;;5038766;28;20052;-72
2021/04/13 04:52:00;;;;;;;1.35;0.10;;;5.50;75.40;;;;;;5038482;28;20025;-72
2021/04/13 04:54:27;;;;;;;0.15;0.10;;;5.50;75.40;;;;;;5038662;28;20025;-72
2021/04/13 04:56:52;;;;;;;0.28;0.20;;;5.60;74.30;;;;;;5038310;28;20053;-72
2021/04/13 04:59:18;;;;;;;0.15;0.10;;;5.70;74.20;;;;;;5038295;28;20095;-72
2021/04/13 05:01:44;;;;;;;0.43;0.22;;;5.70;74.70;;;;;;5038232;28;20073;-72
2021/04/13 05:04:11;;;;;;;1.10;0.10;;;5.70;74.60;;;;;;5038134;28;20033;-72
2021/04/13 05:06:36;;;;;;;0.10;0.10;;;5.60;74.00;;;;;;5038383;28;20318;-72
2021/04/13 05:09:03;;;;;;;2.97;0.20;;;5.50;73.90;;;;;;5038111;28;20030;-72
2021/04/13 05:11:29;;;;;;;0.10;0.10;;;5.50;75.00;;;;;;5038005;28;20083;-72
2021/04/13 05:13:55;;;;;;;0.10;0.10;;;5.60;73.80;;;;;;5038253;28;20029;-72
2021/04/13 05:16:22;;;;;;;0.17;0.10;;;5.70;72.70;;;;;;5037978;28;20493;-72
2021/04/13 05:18:48;;;;;;;1.50;0.13;;;5.80;72.20;;;;;;5038211;28;20030;-72
2021/04/13 05:21:14;;;;;;;0.17;0.10;;;5.80;71.80;;;;;;5038153;28;20179;-72
2021/04/13 05:23:40;;;;;;;0.30;0.20;;;5.80;72.50;;;;;;5038053;28;20317;-72
2021/04/13 05:26:06;;;;;;;0.10;0.10;;;5.90;72.50;;;;;;5037627;28;20061;-72
2021/04/13 05:28:33;;;;;;;0.10;0.10;;;5.90;71.30;;;;;;5038033;28;20029;-72
2021/04/13 05:30:59;;;;;;;0.30;0.20;;;6.00;72.50;;;;;;5037960;28;20017;-72
2021/04/13 05:33:26;;;;;;;0.25;0.20;;;6.00;69.60;;;;;;5037892;28;20025;-72
2021/04/13 05:35:52;;;;;;;0.20;0.20;;;6.00;70.40;;;;;;5037589;28;20026;-71
2021/04/13 05:38:33;;;;;;;0.25;0.10;;;6.00;70.10;;;;;;5037849;28;20049;-72
2021/04/13 05:41:04;;;;;;;0.47;0.20;;;6.10;69.60;;;;;;5037844;28;20025;-72
2021/04/13 05:43:30;;;;;;;0.20;0.20;;;6.10;70.60;;;;;;5037393;28;20456;-72
2021/04/13 05:45:58;;;;;;;3.63;0.20;;;6.10;70.20;;;;;;5037617;28;20025;-72
2021/04/13 05:48:26;;;;;;;0.10;0.10;;;6.10;69.30;;;;;;5037320;28;20021;-72
2021/04/13 05:50:52;;;;;;;0.88;0.10;;;6.20;68.20;;;;;;5037364;28;20021;-72
2021/04/13 05:53:18;;;;;;;0.10;0.10;;;6.20;68.40;;;;;;5037472;28;20331;-71
2021/04/13 05:55:45;;;;;;;0.32;0.20;;;6.30;69.50;;;;;;5037207;28;20064;-71
2021/04/13 05:58:18;;;;;;;0.52;0.25;;;6.30;69.30;;;;;;5037143;28;20418;-72
2021/04/13 06:00:48;;;;;;;0.17;0.15;;;6.30;67.80;;;;;;5037160;28;20140;-72
2021/04/13 06:03:16;;;;;;;0.43;0.20;;;6.30;67.30;;;;;;5037058;28;20035;-71
2021/04/13 06:05:42;;;;;;;0.17;0.17;;;6.30;67.50;;;;;;5037017;28;20076;-72
2021/04/13 06:08:09;;;;;;;0.25;0.15;;;6.40;67.20;;;;;;5037001;28;20025;-72
2021/04/13 06:10:35;;;;;;;0.10;0.10;;;6.40;65.60;;;;;;5036994;28;20021;-71
2021/04/13 06:13:01;;;;;;;2.42;0.30;;;6.50;68.80;;;;;;5037247;28;20032;-71
2021/04/13 06:15:29;;;;;;;0.20;0.10;;;6.50;65.60;;;;;;5037178;28;20307;-71
2021/04/13 06:17:55;;;;;;;1.85;0.20;;;6.50;66.80;;;;;;5037162;28;20091;-72
2021/04/13 06:20:23;;;;;;;0.40;0.20;;;6.50;67.80;;;;;;5036885;28;20056;-72
2021/04/13 06:22:50;;;;;;;0.77;0.28;;;6.50;65.80;;;;;;5037184;28;20026;-72
2021/04/13 06:25:22;;;;;;;0.17;0.17;;;6.60;64.90;;;;;;5036649;28;20248;-72
2021/04/13 06:27:48;;;;;;;0.17;0.17;;;6.60;65.50;;;;;;5037075;28;20025;-72
2021/04/13 06:30:15;;;;;;;0.15;0.15;;;6.50;67.70;;;;;;5036983;28;20078;-72
2021/04/13 06:32:40;;;;;;;0.10;0.10;;;6.50;69.00;;;;;;5036283;28;20548;-72
2021/04/13 06:35:07;;;;;;;0.50;0.20;;;6.60;63.40;;;;;;5036595;28;20057;-72
2021/04/13 06:37:37;;;;;;;0.10;0.10;;;6.60;64.20;;;;;;5036950;28;20121;-72
2021/04/13 06:40:05;;;;;;;0.10;0.10;;;6.70;63.10;;;;;;5036649;28;20027;-72
2021/04/13 06:42:42;;;;;;;0.40;0.30;;;6.70;62.30;;;;;;5036563;28;20037;-72
2021/04/13 06:45:33;;;;;;;0.45;0.35;;;6.80;61.80;;;;;;5036731;28;20327;-72
2021/04/13 06:48:28;;;;;;;0.20;0.20;;;6.80;62.90;;;;;;5036866;28;20164;-72
2021/04/13 06:51:29;;;;;;;0.15;0.15;;;6.70;63.40;;;;;;5036012;28;20333;-72
2021/04/13 06:54:29;;;;;;;0.30;0.20;;;6.80;62.70;;;;;;5036516;28;20036;-72
2021/04/13 06:57:13;;;;;;;0.35;0.20;;;6.80;63.10;;;;;;5035868;28;20095;-72
2021/04/13 06:59:59;;;;;;;0.40;0.20;;;6.80;61.30;;;;;;5036730;28;20049;-72
2021/04/13 07:02:38;;;;;;;1.08;0.20;;;6.90;63.60;;;;;;5036736;28;20112;-72
2021/04/13 07:05:10;;;;;;;0.35;0.20;;;6.70;62.90;;;;;;5035255;28;20033;-72
2021/04/13 07:07:51;;;;;;;0.75;0.20;;;6.60;63.90;;;;;;5036412;28;20395;-71
2021/04/13 07:10:29;;;;;;;1.02;0.47;;;6.60;63.60;;;;;;5036662;28;20033;-71
2021/04/13 07:13:14;;;;;;;0.35;0.20;;;6.60;63.30;;;;;;5036339;28;20109;-71
2021/04/13 07:15:45;;;;;;;0.50;0.20;;;6.60;64.40;;;;;;5036308;28;20034;-72
2021/04/13 07:18:39;;;;;;;1.95;0.20;;;6.60;64.30;;;;;;5036550;28;20038;-72
2021/04/13 07:21:21;;;;;;;0.75;0.22;;;6.50;64.90;;;;;;5036539;28;20037;-72
2021/04/13 07:24:00;;;;;;;0.32;0.25;;;6.50;63.70;;;;;;5036288;28;20040;-72
2021/04/13 07:26:32;;;;;;;0.57;0.20;;;6.50;65.50;;;;;;5036013;28;20052;-72
2021/04/13 07:29:13;;;;;;;0.88;0.32;;;6.40;64.60;;;;;;5036539;28;20025;-71
2021/04/13 07:31:44;;;;;;;0.50;0.20;;;6.50;64.80;;;;;;5036523;28;20152;-71
2021/04/13 07:34:09;;;;;;;0.25;0.25;;;6.60;66.20;;;;;;5036082;28;20334;-72
2021/04/13 07:36:44;;;;;;;0.73;0.30;;;6.60;65.10;;;;;;5036105;28;20026;-71
2021/04/13 07:39:12;;;;;;;0.20;0.20;;;6.70;64.10;;;;;;5036047;28;20413;-72
2021/04/13 07:41:50;;;;;;;0.20;0.20;;;6.80;64.90;;;;;;5036349;28;20029;-71
2021/04/13 07:44:39;;;;;;;1.75;0.30;;;6.80;64.10;;;;;;5036783;28;20034;-71
2021/04/13 07:47:29;;;;;;;0.20;0.20;;;6.90;63.30;;;;;;5039896;28;20036;-71
2021/04/13 07:49:57;;;;;;;0.20;0.20;;;6.90;63.10;;;;;;5039610;28;20040;-71
2021/04/13 07:52:28;;;;;;;0.73;0.30;;;6.90;63.40;;;;;;5039844;28;20021;-72
2021/04/13 07:55:10;;;;;;;0.38;0.30;;;6.90;63.00;;;;;;5039825;28;20108;-71
2021/04/13 07:57:45;;;;;;;0.43;0.22;;;6.90;63.10;;;;;;5039781;28;20050;-71
2021/04/13 08:00:19;;;;;;;1.40;0.60;;;6.90;61.80;;;;;;5039712;28;20025;-71
2021/04/13 08:03:20;;;;;;;0.20;0.20;;;7.00;62.40;;;;;;5039324;28;20159;-71
2021/04/13 08:05:48;;;;;;;0.60;0.30;;;7.00;62.60;;;;;;5038920;28;20449;-71
2021/04/13 08:08:39;;;;;;;0.43;0.30;;;7.10;61.90;;;;;;5039539;28;20018;-72
2021/04/13 08:11:21;;;;;;;0.82;0.30;;;7.10;63.20;;;;;;5039556;28;20022;-71
2021/04/13 08:13:52;;;;;;;0.40;0.20;;;7.10;62.60;;;;;;5039052;28;20030;-71
2021/04/13 08:16:31;;;;;;;0.30;0.20;;;7.20;61.70;;;;;;5039476;28;20043;-71
2021/04/13 08:19:26;;;;;;;2.03;0.20;;;7.20;62.90;;;;;;5039420;28;20029;-71
2021/04/13 08:22:19;;;;;;;1.17;0.40;;;7.20;61.80;;;;;;5039342;28;20029;-72
2021/04/13 08:24:54;;;;;;;0.93;0.20;;;7.30;60.40;;;;;;5038611;28;20527;-72
2021/04/13 08:27:35;;;;;;;0.70;0.40;;;7.30;61.20;;;;;;5039244;28;20034;-71
2021/04/13 08:30:20;;;;;;;0.57;0.35;;;7.30;61.90;;;;;;5039173;28;20026;-71
2021/04/13 08:33:07;;;;;;;0.43;0.20;;;7.30;63.60;;;;;;5039148;28;20056;-71
2021/04/13 08:35:45;;;;;;;0.20;0.20;;;7.40;63.70;;;;;;5038963;28;20057;-71
2021/04/13 08:38:16;;;;;;;0.77;0.40;;;7.60;62.40;;;;;;5039063;28;20100;-72
2021/04/13 08:40:54;;;;;;;2.42;0.30;;;7.70;63.10;;;;;;5038983;28;20091;-71
2021/04/13 08:43:30;;;;;;;0.70;0.32;;;7.80;61.00;;;;;;5038583;28;20112;-71
2021/04/13 08:46:10;;;;;;;;;;;8.00;60.80;;;;;;5038906;28;20025;-71
2021/04/13 08:48:48;;;;;;;0.75;0.30;;;8.20;60.60;;;;;;5038767;28;19911;-72
2021/04/13 08:51:18;;;;;;;0.28;0.20;;;8.70;63.60;;;;;;5038771;28;20108;-72
2021/04/13 08:54:02;;;;;;;0.38;0.20;;;9.20;57.70;;;;;;5038657;28;20347;-72
2021/04/13 08:56:30;;;;;;;1.33;0.60;;;9.40;59.20;;;;;;5038137;28;20088;-72
2021/04/13 08:59:02;;;;;;;0.77;0.40;;;9.50;56.30;;;;;;5038343;28;20431;-72
2021/04/13 09:01:39;;;;;;;0.50;0.30;;;9.80;60.70;;;;;;5038291;28;20026;-72
2021/04/13 09:04:10;;;;;;;1.60;0.60;;;9.90;54.80;;;;;;5038130;28;20036;-72
2021/04/13 09:06:56;;;;;;;2.58;0.50;;;9.90;58.90;;;;;;5038166;28;20037;-72
2021/04/13 09:09:31;;;;;;;;;;;9.80;60.10;;;;;;5038864;28;20333;-72
2021/04/13 09:12:18;;;;;;;3.70;0.68;;;9.80;60.20;;;;;;5038375;28;20187;-72
2021/04/13 09:14:53;;;;;;;1.27;0.63;;;9.90;65.60;;;;;;5038301;28;20049;-72
2021/04/13 09:17:19;;;;;;;0.90;0.60;;;10.30;67.40;;;;;;5038019;28;20037;-72
2021/04/13 09:20:04;;;;;;;1.33;0.60;;;10.70;66.80;;;;;;5037884;28;20314;-72
2021/04/13 09:22:50;;;;;;;1.00;0.40;;;11.10;65.10;;;;;;5038131;28;20021;-71
2021/04/13 09:25:34;;;;;;;2.83;0.73;;;11.10;62.00;;;;;;5037737;28;20050;-72
2021/04/13 09:28:13;;;;;;;1.05;0.70;;;10.90;64.40;;;;;;5038087;28;20317;-72
2021/04/13 09:30:45;;;;;;;1.95;1.02;;;10.80;66.60;;;;;;5037982;28;20364;-72
2021/04/13 09:33:18;;;;;;;5.40;0.80;;;10.50;67.70;;;;;;5037799;28;20317;-71
2021/04/13 09:35:53;;;;;;;1.10;0.50;;;10.50;69.70;;;;;;5037906;28;20034;-72
2021/04/13 09:38:27;;;;;;;1.27;0.68;;;10.40;59.80;;;;;;5037919;28;20330;-72
2021/04/13 09:41:11;;;;;;;1.00;0.50;;;10.60;62.30;;;;;;5037775;28;20037;-72
2021/04/13 09:44:01;;;;;;;1.42;0.40;;;10.90;60.20;;;;;;5037385;28;20033;-72
2021/04/13 09:46:50;;;;;;;1.23;0.40;;;11.10;59.50;;;;;;5037672;28;20112;-72
2021/04/13 09:49:40;;;;;;;0.60;0.40;;;11.30;57.90;;;;;;5037347;28;20021;-72
2021/04/13 09:52:17;;;;;;;1.25;0.52;;;11.50;55.50;;;;;;5037296;28;20414;-71
2021/04/13 09:54:47;;;;;;;1.23;0.40;;;11.00;55.90;;;;;;5037526;28;20029;-71
2021/04/13 09:57:58;;;;;;;0.63;0.40;;;11.00;59.20;;;;;;5037225;28;20310;-71
2021/04/13 10:00:42;;;;;;;1.25;0.55;;;11.10;53.50;;;;;;5037187;28;20321;-71
2021/04/13 10:03:15;;;;;;;0.73;0.30;;;11.10;60.10;;;;;;5037492;28;20048;-71
2021/04/13 10:05:48;;;;;;;1.10;0.57;;;11.30;58.60;;;;;;5037046;28;20418;-71
2021/04/13 10:08:24;;;;;;;2.25;0.65;;;11.20;60.90;;;;;;5036677;28;20116;-71
2021/04/13 10:11:08;;;;;;;1.45;0.82;;;10.80;63.20;;;;;;5037049;28;20421;-72
2021/04/13 10:14:16;;;;;;;1.35;0.68;;;10.70;68.20;;;;;;5035658;28;20072;-71
2021/04/13 10:16:57;;;;;;;2.28;0.98;;;10.90;64.20;;;;;;5045941;28;20037;-72
2021/04/13 10:19:47;;;;;;;2.70;0.95;;;10.70;65.00;;;;;;5037180;28;20037;-71
2021/04/13 10:22:35;;;;;;;0.93;0.40;;;10.60;64.80;;;;;;5037129;28;20094;-72
2021/04/13 10:25:15;;;;;;;0.63;0.47;;;10.90;57.90;;;;;;5036686;28;20057;-72
2021/04/13 10:28:12;;;;;;;1.88;0.50;;;11.30;61.20;;;;;;5036995;28;20053;-72
2021/04/13 10:30:57;;;;;;;0.85;0.57;;;11.50;56.20;;;;;;5037024;28;20057;-72
2021/04/13 10:33:35;;;;;;;0.98;0.40;;;11.50;54.50;;;;;;5036976;28;20033;-72
2021/04/13 10:36:28;;;;;;;2.67;0.60;;;11.50;56.40;;;;;;5037002;28;20112;-72
2021/04/13 10:39:31;;;;;;;1.80;0.75;;;11.70;65.70;;;;;;5036604;28;20025;-72
2021/04/13 10:42:21;;;;;;;1.63;0.80;;;11.90;60.10;;;;;;5036931;28;20029;-71
2021/04/13 10:45:18;;;;;;;1.90;0.77;;;12.00;63.30;;;;;;5036838;28;20326;-72
2021/04/13 10:48:12;;;;;;;1.55;0.73;;;12.60;60.60;;;;;;5036856;28;20365;-72
2021/04/13 10:50:52;;;;;;;1.80;0.60;;;13.00;64.00;;;;;;5036876;28;20103;-72
2021/04/13 10:53:49;;;;;;;1.25;0.43;;;13.10;57.30;;;;;;5036467;28;20403;-72
2021/04/13 10:56:20;;;;;;;1.02;0.50;;;13.20;55.60;;;;;;5036542;28;20049;-72
2021/04/13 10:58:57;;;;;;;1.05;0.55;;;13.50;52.40;;;;;;5036727;28;20029;-72
2021/04/13 11:02:00;;;;;;;1.08;0.60;;;13.70;55.90;;;;;;5036736;28;20026;-72
2021/04/13 11:04:34;;;;;;;0.75;0.43;;;13.90;51.60;;;;;;5036357;28;20057;-72
2021/04/13 11:07:30;;;;;;;1.40;0.70;;;14.00;51.90;;;;;;5036613;28;20033;-72
2021/04/13 11:10:07;;;;;;;1.63;0.80;;;14.10;54.00;;;;;;5035429;28;20033;-72
2021/04/13 11:13:01;;;;;;;2.47;0.60;;;14.10;56.40;;;;;;5036363;28;20032;-72
2021/04/13 11:15:32;;;;;;;1.25;0.70;;;14.10;58.20;;;;;;5036227;28;20030;-72
2021/04/13 11:18:00;;;;;;;2.13;0.80;;;13.50;54.70;;;;;;5036579;28;20037;-72
2021/04/13 11:20:35;;;;;;;1.42;0.77;;;13.30;56.80;;;;;;5040232;28;20418;-72
2021/04/13 11:23:06;;;;;;;1.98;1.30;;;13.40;60.10;;;;;;5040377;28;20038;-72
2021/04/13 11:26:00;;;;;;;2.28;0.95;;;13.30;60.90;;;;;;5039721;28;20049;-72
2021/04/13 11:29:02;;;;;;;1.50;1.05;;;12.90;59.00;;;;;;5040312;28;20026;-72
2021/04/13 11:32:05;;;;;;;2.15;1.05;;;12.50;62.40;;;;;;5040283;28;20033;-72
2021/04/13 11:34:31;;;;;;;1.67;1.08;;;13.10;61.40;;;;;;5040127;28;20030;-72
2021/04/13 11:37:26;;;;;;;1.48;0.98;;;13.20;62.60;;;;;;5040164;28;20029;-72
2021/04/13 11:40:28;;;;;;;3.50;1.13;;;12.90;59.90;;;;;;5038122;28;20422;-72
2021/04/13 11:42:57;;;;;;;2.22;1.02;;;12.50;57.20;;;;;;5038808;28;20060;-72
2021/04/13 11:45:48;;;;;;;1.48;1.00;;;12.20;64.70;;;;;;5039568;28;20028;-72
2021/04/13 11:48:34;;;;;;;1.17;0.88;;;11.90;64.10;;;;;;5039964;28;20026;-72
2021/04/13 11:51:25;;;;;;;2.17;0.95;;;11.60;65.60;;;;;;5039660;28;20421;-72
2021/04/13 11:53:52;;;;;;;2.72;1.05;;;11.30;62.90;;;;;;5039665;28;20029;-72
2021/04/13 11:56:21;;;;;;;1.58;0.98;;;11.00;65.40;;;;;;5039518;28;20430;-71
2021/04/13 11:59:12;;;;;;;1.80;1.02;;;10.70;69.20;;;;;;5039471;28;20067;-72
2021/04/13 12:01:43;;;;;;;3.30;1.05;;;10.50;69.20;;;;;;5038490;28;20030;-71
2021/04/13 12:04:16;;;;;;;2.80;0.90;;;10.10;70.80;;;;;;5039636;28;20029;-72
2021/04/13 12:06:57;;;;;;;2.25;1.20;;;10.00;72.90;;;;;;5039629;28;20321;-72
2021/04/13 12:09:45;;;;;;;1.80;1.13;;;9.80;73.30;;;;;;5039581;28;20045;-71
2021/04/13 12:12:34;;;;;;;2.85;1.13;;;9.50;74.50;;;;;;5039566;28;20357;-71
2021/04/13 12:15:03;;;;;;;2.65;1.00;;;9.50;73.40;;;;;;5038687;28;20330;-72
2021/04/13 12:17:34;;;;;;;1.65;1.13;;;9.60;74.90;;;;;;5039442;28;20026;-72
2021/04/13 12:20:38;;;;;;;1.58;1.15;;;9.80;75.00;;;;;;5039057;28;20060;-71
2021/04/13 12:23:14;;;;;;;1.50;1.20;;;10.00;71.80;;;;;;5038748;28;20021;-71
2021/04/13 12:25:41;;;;;;;1.77;1.17;;;10.20;74.40;;;;;;5038807;28;20358;-71
2021/04/13 12:28:13;;;;;;;2.67;1.20;;;10.20;74.60;;;;;;5038912;28;20063;-72
2021/04/13 12:30:42;;;;;;;4.20;1.25;;;10.20;71.10;;;;;;5038492;28;20025;-72
2021/04/13 12:33:31;;;;;;;2.08;1.20;;;9.90;71.10;;;;;;5039152;28;20037;-71
2021/04/13 12:36:08;;;;;;;1.95;1.30;;;9.70;74.40;;;;;;5038715;28;20037;-71
2021/04/13 12:38:41;;;;;;;1.00;0.80;;;9.60;73.30;;;;;;5039062;28;20029;-71
2021/04/13 12:41:19;;;;;;;1.58;1.02;;;9.60;74.70;;;;;;5039050;28;20307;-71
2021/04/13 12:44:22;;;;;;;3.03;0.88;;;9.50;75.70;;;;;;5038540;28;20418;-71
2021/04/13 12:46:50;;;;;;;1.55;1.05;;;9.40;73.50;;;;;;5037846;28;20059;-71
2021/04/13 12:49:15;;;;;;;1.50;0.90;;;9.40;74.50;;;;;;5038523;28;20398;-71
2021/04/13 12:52:02;;;;;;;1.30;1.00;;;9.50;74.30;;;;;;5038744;28;20091;-71
2021/04/13 12:54:33;;;;;;;3.05;1.50;;;9.50;73.10;;;;;;5038780;28;20053;-71
2021/04/13 12:57:23;;;;;;;2.80;1.50;;;9.50;73.80;;;;;;5038760;28;20030;-72
2021/04/13 12:59:51;;;;;;;1.33;1.00;;;9.50;73.70;;;;;;5038677;28;20049;-72
2021/04/13 13:02:38;;;;;;;2.83;1.70;;;9.60;73.80;;;;;;5038262;28;20025;-72
2021/04/13 13:05:25;;;;;;;2.15;1.38;;;9.70;75.70;;;;;;5038023;28;20029;-72
2021/04/13 13:08:00;;;;;;;4.90;1.40;;;9.80;72.60;;;;;;5038129;28;20033;-72
2021/04/13 13:10:40;;;;;;;1.83;1.20;;;9.90;74.00;;;;;;5038146;28;20025;-72
2021/04/13 13:13:10;;;;;;;3.47;1.30;;;10.10;71.70;;;;;;5038044;28;20429;-72
2021/04/13 13:15:38;;;;;;;3.92;1.15;;;10.30;70.70;;;;;;5038294;28;20078;-72
2021/04/13 13:18:33;;;;;;;2.78;1.30;;;10.40;69.60;;;;;;5037913;28;20041;-72
2021/04/13 13:21:07;;;;;;;1.90;1.20;;;10.40;72.70;;;;;;5037393;28;20073;-72
2021/04/13 13:23:42;;;;;;;1.77;1.13;;;10.50;69.90;;;;;;5037839;28;20418;-72
2021/04/13 13:26:18;;;;;;;1.48;1.10;;;10.40;70.50;;;;;;5037688;28;20490;-72
2021/04/13 13:28:44;;;;;;;;;;;10.20;72.10;;;;;;5038484;28;20123;-71
2021/04/13 13:31:13;;;;;;;4.50;1.30;;;10.00;70.70;;;;;;5038075;28;19929;-72
2021/04/13 13:33:39;;;;;;;2.22;1.50;;;9.90;72.10;;;;;;5037873;28;20053;-71
2021/04/13 13:36:05;;;;;;;3.58;1.80;;;10.00;70.70;;;;;;5037951;28;20048;-72
2021/04/13 13:38:33;;;;;;;1.85;1.20;;;9.90;71.70;;;;;;5037552;28;20113;-72
2021/04/13 13:41:02;;;;;;;1.63;1.30;;;9.90;70.90;;;;;;5037604;28;20028;-71
2021/04/13 13:43:30;;;;;;;2.05;1.40;;;9.80;72.00;;;;;;5036519;28;20429;-72